createdAt,value
2018-06-13T00:00:00.747Z,15.7
2018-06-13T00:01:02.141Z,15.8
2018-06-13T00:02:03.528Z,15.8
2018-06-13T00:03:04.922Z,15.8
2018-06-13T00:04:06.308Z,15.8
2018-06-13T00:05:07.704Z,15.7
2018-06-13T00:06:09.093Z,15.8
2018-06-13T00:07:10.483Z,15.7
2018-06-13T00:08:11.876Z,15.8
2018-06-13T00:09:13.270Z,15.8
2018-06-13T00:10:14.663Z,15.7
2018-06-13T00:11:16.060Z,15.7
2018-06-13T00:12:17.453Z,15.7
2018-06-13T00:13:18.848Z,15.8
2018-06-13T00:14:20.238Z,15.7
2018-06-13T00:15:21.632Z,15.7
2018-06-13T00:16:23.026Z,15.7
2018-06-13T00:17:24.420Z,15.7
2018-06-13T00:18:25.812Z,15.6
2018-06-13T00:19:27.200Z,15.6
2018-06-13T00:20:28.598Z,15.5
2018-06-13T00:21:29.992Z,15.5
2018-06-13T00:22:31.384Z,15.5
2018-06-13T00:23:32.839Z,15.6
2018-06-13T00:24:34.232Z,15.5
2018-06-13T00:25:35.622Z,15.6
2018-06-13T00:26:37.015Z,15.5
2018-06-13T00:27:38.406Z,15.4
2018-06-13T00:28:39.795Z,15.4
2018-06-13T00:29:41.193Z,15.4
2018-06-13T00:30:42.586Z,15.4
2018-06-13T00:31:43.987Z,15.3
2018-06-13T00:32:45.383Z,15.3
2018-06-13T00:33:46.777Z,15.3
2018-06-13T00:34:48.165Z,15.2
2018-06-13T00:35:49.557Z,15.2
2018-06-13T00:36:50.984Z,15.2
2018-06-13T00:37:52.346Z,15.1
2018-06-13T00:38:53.852Z,15.3
2018-06-13T00:39:55.252Z,15.2
2018-06-13T00:40:56.641Z,15.2
2018-06-13T00:41:58.062Z,15.2
2018-06-13T00:42:59.453Z,15.2
2018-06-13T00:44:00.847Z,15.1
2018-06-13T00:45:02.242Z,15.1
2018-06-13T00:46:03.641Z,15.0
2018-06-13T00:47:05.037Z,15.1
2018-06-13T00:48:06.429Z,15.1
2018-06-13T00:49:07.819Z,15.0
2018-06-13T00:50:09.215Z,15.0
2018-06-13T00:51:10.609Z,14.9
2018-06-13T00:52:12.005Z,15.1
2018-06-13T00:53:13.427Z,15.0
2018-06-13T00:54:14.817Z,14.9
2018-06-13T00:55:16.205Z,15.0
2018-06-13T00:56:17.601Z,15.0
2018-06-13T00:57:18.990Z,14.9
2018-06-13T00:58:20.386Z,14.9
2018-06-13T00:59:21.779Z,15.0
2018-06-13T01:00:23.184Z,15.0
2018-06-13T01:01:24.571Z,14.9
2018-06-13T01:02:25.964Z,15.0
2018-06-13T01:03:27.360Z,14.9
2018-06-13T01:04:28.751Z,15.0
2018-06-13T01:05:30.144Z,15.0
2018-06-13T01:06:31.554Z,14.9
2018-06-13T01:07:32.945Z,14.9
2018-06-13T01:08:34.337Z,14.9
2018-06-13T01:09:35.731Z,14.9
2018-06-13T01:10:37.123Z,14.9
2018-06-13T01:11:38.512Z,14.9
2018-06-13T01:12:39.905Z,15.0
2018-06-13T01:13:41.298Z,14.9
2018-06-13T01:14:42.691Z,15.0
2018-06-13T01:15:44.080Z,14.9
2018-06-13T01:16:45.473Z,14.9
2018-06-13T01:17:46.873Z,14.9
2018-06-13T01:18:48.256Z,14.8
2018-06-13T01:19:49.649Z,14.8
2018-06-13T01:20:51.039Z,14.8
2018-06-13T01:21:52.436Z,14.8
2018-06-13T01:22:53.830Z,14.8
2018-06-13T01:23:55.217Z,14.8
2018-06-13T01:24:56.654Z,14.9
2018-06-13T01:25:58.049Z,14.8
2018-06-13T01:26:59.441Z,14.8
2018-06-13T01:28:00.833Z,14.8
2018-06-13T01:29:02.223Z,14.8
2018-06-13T01:30:03.626Z,14.8
2018-06-13T01:31:05.024Z,14.8
2018-06-13T01:32:06.404Z,14.8
2018-06-13T01:33:07.799Z,14.8
2018-06-13T01:34:09.193Z,14.8
2018-06-13T01:35:10.586Z,14.7
2018-06-13T01:36:11.980Z,14.7
2018-06-13T01:37:13.400Z,14.7
2018-06-13T01:38:14.788Z,14.7
2018-06-13T01:39:16.179Z,14.7
2018-06-13T01:40:17.573Z,14.7
2018-06-13T01:41:18.966Z,14.7
2018-06-13T01:42:20.355Z,14.7
2018-06-13T01:43:21.752Z,14.7
2018-06-13T01:44:23.140Z,14.7
2018-06-13T01:45:24.532Z,14.6
2018-06-13T01:46:25.922Z,14.5
2018-06-13T01:47:27.313Z,14.6
2018-06-13T01:48:28.714Z,14.6
2018-06-13T01:49:30.103Z,14.5
2018-06-13T01:50:31.496Z,14.5
2018-06-13T01:51:32.882Z,14.4
2018-06-13T01:52:34.283Z,14.4
2018-06-13T01:53:35.673Z,14.5
2018-06-13T01:54:37.066Z,14.4
2018-06-13T01:55:38.467Z,14.3
2018-06-13T01:56:39.859Z,14.4
2018-06-13T01:57:41.250Z,14.4
2018-06-13T01:58:42.639Z,14.4
2018-06-13T01:59:44.029Z,14.4
2018-06-13T02:00:45.419Z,14.3
2018-06-13T02:01:46.814Z,14.2
2018-06-13T02:02:48.207Z,14.2
2018-06-13T02:03:49.604Z,14.3
2018-06-13T02:04:50.994Z,14.2
2018-06-13T02:05:52.385Z,14.3
2018-06-13T02:06:53.799Z,14.2
2018-06-13T02:07:55.190Z,14.2
2018-06-13T02:08:56.582Z,14.2
2018-06-13T02:09:57.973Z,14.0
2018-06-13T02:10:59.407Z,14.0
2018-06-13T02:12:00.787Z,13.9
2018-06-13T02:13:02.177Z,13.9
2018-06-13T02:14:03.603Z,13.9
2018-06-13T02:15:04.998Z,14.0
2018-06-13T02:16:06.388Z,13.9
2018-06-13T02:17:07.780Z,13.9
2018-06-13T02:18:09.176Z,13.9
2018-06-13T02:19:10.569Z,13.8
2018-06-13T02:20:11.962Z,13.8
2018-06-13T02:21:13.351Z,13.9
2018-06-13T02:22:14.744Z,13.9
2018-06-13T02:23:16.138Z,13.9
2018-06-13T02:24:17.536Z,14.0
2018-06-13T02:25:18.926Z,13.9
2018-06-13T02:26:20.319Z,13.9
2018-06-13T02:27:21.718Z,14.0
2018-06-13T02:28:23.101Z,13.9
2018-06-13T02:29:24.497Z,13.8
2018-06-13T02:30:25.888Z,13.8
2018-06-13T02:31:27.275Z,13.8
2018-06-13T02:32:28.677Z,13.8
2018-06-13T02:33:30.060Z,13.9
2018-06-13T02:34:31.452Z,13.8
2018-06-13T02:35:32.847Z,13.8
2018-06-13T02:36:34.236Z,13.8
2018-06-13T02:37:35.626Z,13.8
2018-06-13T02:38:37.022Z,13.8
2018-06-13T02:39:38.422Z,13.9
2018-06-13T02:40:39.809Z,13.8
2018-06-13T02:41:41.201Z,13.9
2018-06-13T02:42:42.628Z,13.8
2018-06-13T02:43:44.019Z,13.8
2018-06-13T02:44:45.411Z,13.9
2018-06-13T02:45:46.807Z,13.9
2018-06-13T02:46:48.200Z,13.9
2018-06-13T02:47:49.604Z,13.8
2018-06-13T02:48:50.993Z,13.8
2018-06-13T02:49:52.388Z,13.9
2018-06-13T02:50:53.779Z,13.9
2018-06-13T02:51:55.171Z,13.7
2018-06-13T02:52:56.568Z,13.8
2018-06-13T02:53:57.960Z,13.8
2018-06-13T02:54:59.386Z,13.9
2018-06-13T02:56:00.776Z,13.8
2018-06-13T02:57:02.204Z,13.8
2018-06-13T02:58:03.623Z,13.8
2018-06-13T02:59:05.013Z,13.8
2018-06-13T03:00:06.409Z,13.8
2018-06-13T03:01:07.800Z,13.8
2018-06-13T03:02:09.193Z,13.8
2018-06-13T03:03:10.585Z,13.8
2018-06-13T03:04:11.971Z,13.8
2018-06-13T03:05:13.363Z,13.8
2018-06-13T03:06:14.753Z,13.8
2018-06-13T03:07:16.148Z,13.8
2018-06-13T03:08:17.544Z,13.7
2018-06-13T03:09:18.933Z,13.8
2018-06-13T03:10:20.323Z,13.9
2018-06-13T03:11:21.715Z,13.9
2018-06-13T03:12:23.103Z,13.9
2018-06-13T03:13:24.494Z,13.9
2018-06-13T03:14:25.885Z,13.9
2018-06-13T03:15:27.292Z,13.9
2018-06-13T03:16:28.681Z,14.0
2018-06-13T03:17:30.072Z,13.9
2018-06-13T03:18:31.459Z,14.0
2018-06-13T03:19:32.860Z,14.0
2018-06-13T03:20:34.263Z,14.0
2018-06-13T03:21:35.655Z,14.0
2018-06-13T03:22:37.047Z,13.9
2018-06-13T03:23:38.441Z,13.9
2018-06-13T03:24:39.834Z,13.9
2018-06-13T03:25:41.222Z,14.0
2018-06-13T03:26:42.617Z,14.0
2018-06-13T03:27:44.008Z,13.9
2018-06-13T03:28:45.404Z,14.0
2018-06-13T03:29:46.797Z,13.9
2018-06-13T03:30:48.202Z,13.9
2018-06-13T03:31:49.587Z,14.0
2018-06-13T03:32:50.980Z,14.0
2018-06-13T03:33:52.376Z,14.0
2018-06-13T03:34:53.764Z,14.0
2018-06-13T03:35:55.159Z,14.0
2018-06-13T03:36:56.552Z,14.0
2018-06-13T03:37:57.949Z,14.0
2018-06-13T03:38:59.340Z,14.0
2018-06-13T03:40:00.735Z,14.0
2018-06-13T03:41:02.187Z,14.0
2018-06-13T03:42:03.527Z,14.0
2018-06-13T03:43:05.047Z,14.0
2018-06-13T03:44:06.463Z,14.0
2018-06-13T03:45:07.860Z,14.1
2018-06-13T03:46:09.256Z,14.1
2018-06-13T03:47:10.651Z,14.0
2018-06-13T03:48:12.054Z,14.0
2018-06-13T03:49:13.448Z,14.0
2018-06-13T03:50:14.842Z,13.9
2018-06-13T03:51:16.239Z,14.0
2018-06-13T03:52:17.635Z,14.0
2018-06-13T03:53:19.032Z,13.9
2018-06-13T03:54:20.428Z,14.0
2018-06-13T03:55:21.821Z,14.0
2018-06-13T03:56:23.214Z,14.0
2018-06-13T03:57:24.608Z,14.0
2018-06-13T03:58:26.008Z,14.0
2018-06-13T03:59:27.403Z,14.0
2018-06-13T04:00:28.798Z,14.0
2018-06-13T04:01:30.192Z,14.1
2018-06-13T04:02:31.590Z,14.1
2018-06-13T04:03:32.984Z,14.1
2018-06-13T04:04:34.378Z,14.1
2018-06-13T04:05:35.772Z,14.2
2018-06-13T04:06:37.170Z,14.1
2018-06-13T04:07:38.565Z,14.1
2018-06-13T04:08:39.957Z,14.1
2018-06-13T04:09:41.353Z,14.2
2018-06-13T04:10:42.751Z,14.2
2018-06-13T04:11:44.146Z,14.2
2018-06-13T04:12:45.544Z,14.3
2018-06-13T04:13:47.011Z,14.2
2018-06-13T04:14:48.375Z,14.3
2018-06-13T04:15:49.768Z,14.3
2018-06-13T04:16:51.169Z,14.3
2018-06-13T04:17:52.574Z,14.3
2018-06-13T04:18:53.971Z,14.3
2018-06-13T04:19:55.368Z,14.3
2018-06-13T04:20:56.759Z,14.4
2018-06-13T04:21:58.151Z,14.3
2018-06-13T04:22:59.566Z,14.4
2018-06-13T04:24:00.962Z,14.4
2018-06-13T04:25:02.359Z,14.5
2018-06-13T04:26:03.754Z,14.4
2018-06-13T04:27:05.151Z,14.6
2018-06-13T04:28:06.546Z,14.6
2018-06-13T04:29:07.982Z,14.6
2018-06-13T04:30:09.368Z,14.4
2018-06-13T04:31:10.762Z,14.5
2018-06-13T04:32:12.156Z,14.5
2018-06-13T04:33:13.552Z,14.5
2018-06-13T04:34:14.946Z,14.6
2018-06-13T04:35:16.372Z,14.5
2018-06-13T04:36:17.764Z,14.5
2018-06-13T04:37:19.157Z,14.6
2018-06-13T04:38:20.550Z,14.6
2018-06-13T04:39:21.945Z,14.6
2018-06-13T04:40:23.339Z,14.5
2018-06-13T04:41:24.738Z,14.6
2018-06-13T04:42:26.136Z,14.6
2018-06-13T04:43:27.531Z,14.6
2018-06-13T04:44:28.930Z,14.7
2018-06-13T04:45:30.323Z,14.8
2018-06-13T04:46:31.718Z,14.7
2018-06-13T04:47:33.113Z,14.7
2018-06-13T04:48:34.510Z,14.8
2018-06-13T04:49:35.907Z,14.8
2018-06-13T04:50:37.311Z,14.7
2018-06-13T04:51:38.706Z,14.7
2018-06-13T04:52:40.100Z,14.8
2018-06-13T04:53:41.501Z,14.7
2018-06-13T04:54:42.903Z,14.7
2018-06-13T04:55:44.302Z,14.8
2018-06-13T04:56:45.697Z,14.8
2018-06-13T04:57:47.096Z,14.8
2018-06-13T04:58:48.562Z,14.8
2018-06-13T04:59:49.961Z,14.9
2018-06-13T05:00:51.359Z,15.0
2018-06-13T05:01:52.760Z,14.9
2018-06-13T05:02:54.157Z,14.9
2018-06-13T05:03:55.558Z,14.9
2018-06-13T05:04:56.952Z,15.0
2018-06-13T05:05:58.345Z,14.9
2018-06-13T05:06:59.742Z,14.9
2018-06-13T05:08:01.140Z,15.0
2018-06-13T05:09:02.538Z,15.0
2018-06-13T05:10:03.940Z,15.0
2018-06-13T05:11:05.336Z,14.9
2018-06-13T05:12:06.731Z,15.0
2018-06-13T05:13:08.123Z,15.0
2018-06-13T05:14:09.521Z,14.9
2018-06-13T05:15:10.965Z,15.0
2018-06-13T05:16:12.365Z,15.1
2018-06-13T05:17:13.785Z,15.1
2018-06-13T05:18:15.175Z,15.1
2018-06-13T05:19:16.570Z,15.1
2018-06-13T05:20:17.969Z,15.2
2018-06-13T05:21:19.386Z,15.1
2018-06-13T05:22:20.783Z,15.1
2018-06-13T05:23:22.179Z,15.2
2018-06-13T05:24:23.576Z,15.3
2018-06-13T05:25:24.980Z,15.1
2018-06-13T05:26:26.380Z,15.2
2018-06-13T05:27:27.770Z,15.1
2018-06-13T05:28:29.212Z,15.2
2018-06-13T05:29:30.562Z,15.1
2018-06-13T05:30:31.964Z,15.2
2018-06-13T05:31:33.357Z,15.2
2018-06-13T05:32:34.758Z,15.2
2018-06-13T05:33:36.150Z,15.2
2018-06-13T05:34:37.547Z,15.3
2018-06-13T05:35:38.944Z,15.3
2018-06-13T05:36:40.341Z,15.3
2018-06-13T05:37:41.736Z,15.3
2018-06-13T05:38:43.134Z,15.4
2018-06-13T05:39:44.534Z,15.4
2018-06-13T05:40:45.924Z,15.4
2018-06-13T05:41:47.368Z,15.5
2018-06-13T05:42:48.711Z,15.4
2018-06-13T05:43:50.157Z,15.5
2018-06-13T05:44:51.507Z,15.5
2018-06-13T05:45:52.899Z,15.5
2018-06-13T05:46:54.302Z,15.5
2018-06-13T05:47:55.728Z,15.5
2018-06-13T05:48:57.118Z,15.5
2018-06-13T05:49:58.516Z,15.5
2018-06-13T05:50:59.912Z,15.5
2018-06-13T05:52:01.312Z,15.5
2018-06-13T05:53:02.712Z,15.5
2018-06-13T05:54:04.109Z,15.5
2018-06-13T05:55:05.501Z,15.5
2018-06-13T05:56:06.895Z,15.5
2018-06-13T05:57:08.292Z,15.5
2018-06-13T05:58:09.686Z,15.5
2018-06-13T05:59:11.081Z,15.5
2018-06-13T06:00:12.476Z,15.4
2018-06-13T06:01:13.992Z,15.5
2018-06-13T06:02:15.333Z,15.4
2018-06-13T06:03:16.725Z,15.5
2018-06-13T06:04:18.121Z,15.4
2018-06-13T06:05:19.514Z,15.5
2018-06-13T06:06:20.910Z,15.5
2018-06-13T06:07:22.309Z,15.5
2018-06-13T06:08:23.710Z,15.5
2018-06-13T06:09:25.106Z,15.7
2018-06-13T06:10:26.552Z,15.6
2018-06-13T06:11:27.903Z,15.6
2018-06-13T06:12:29.299Z,15.7
2018-06-13T06:13:30.692Z,15.7
2018-06-13T06:14:32.092Z,15.8
2018-06-13T06:15:33.486Z,15.7
2018-06-13T06:16:34.880Z,15.7
2018-06-13T06:17:36.273Z,15.7
2018-06-13T06:18:37.670Z,15.7
2018-06-13T06:19:39.068Z,15.8
2018-06-13T06:20:40.467Z,15.8
2018-06-13T06:21:41.864Z,15.8
2018-06-13T06:22:43.264Z,15.9
2018-06-13T06:23:44.662Z,15.9
2018-06-13T06:24:46.057Z,16.0
2018-06-13T06:25:47.457Z,16.0
2018-06-13T06:26:48.856Z,16.0
2018-06-13T06:27:50.258Z,16.0
2018-06-13T06:28:51.655Z,16.0
2018-06-13T06:29:53.052Z,16.1
2018-06-13T06:30:54.443Z,16.1
2018-06-13T06:31:55.841Z,16.2
2018-06-13T06:32:57.242Z,16.1
2018-06-13T06:33:58.637Z,16.2
2018-06-13T06:35:00.049Z,16.2
2018-06-13T06:36:01.431Z,16.2
2018-06-13T06:37:02.837Z,16.2
2018-06-13T06:38:04.227Z,16.3
2018-06-13T06:39:05.626Z,16.2
2018-06-13T06:40:07.017Z,16.3
2018-06-13T06:41:08.418Z,16.4
2018-06-13T06:42:09.858Z,16.3
2018-06-13T06:43:11.210Z,16.3
2018-06-13T06:44:12.604Z,16.3
2018-06-13T06:45:14.016Z,16.4
2018-06-13T06:46:15.410Z,16.3
2018-06-13T06:47:16.873Z,16.4
2018-06-13T06:48:18.352Z,16.5
2018-06-13T06:49:19.744Z,16.6
2018-06-13T06:50:21.146Z,16.7
2018-06-13T06:51:22.545Z,16.7
2018-06-13T06:52:23.938Z,16.8
2018-06-13T06:53:25.336Z,16.8
2018-06-13T06:54:26.732Z,16.9
2018-06-13T06:55:28.168Z,17.0
2018-06-13T06:56:29.525Z,17.0
2018-06-13T06:57:30.921Z,17.0
2018-06-13T06:58:32.323Z,17.0
2018-06-13T06:59:33.714Z,17.2
2018-06-13T07:00:35.111Z,17.2
2018-06-13T07:01:36.514Z,17.3
2018-06-13T07:02:37.972Z,17.3
2018-06-13T07:03:39.304Z,17.4
2018-06-13T07:04:40.705Z,17.4
2018-06-13T07:05:42.106Z,17.4
2018-06-13T07:06:43.506Z,17.4
2018-06-13T07:07:44.897Z,17.4
2018-06-13T07:08:46.295Z,17.4
2018-06-13T07:09:47.694Z,17.4
2018-06-13T07:10:49.091Z,17.4
2018-06-13T07:11:50.490Z,17.4
2018-06-13T07:12:51.966Z,17.4
2018-06-13T07:13:53.366Z,17.5
2018-06-13T07:14:54.768Z,17.4
2018-06-13T07:15:56.172Z,17.4
2018-06-13T07:16:57.573Z,17.4
2018-06-13T07:17:58.976Z,17.3
2018-06-13T07:19:00.397Z,17.3
2018-06-13T07:20:01.785Z,17.3
2018-06-13T07:21:03.182Z,17.3
2018-06-13T07:22:04.584Z,17.3
2018-06-13T07:23:05.980Z,17.4
2018-06-13T07:24:07.386Z,17.4
2018-06-13T07:25:08.797Z,17.3
2018-06-13T07:26:10.215Z,17.4
2018-06-13T07:27:11.618Z,17.4
2018-06-13T07:28:13.013Z,17.3
2018-06-13T07:29:14.415Z,17.3
2018-06-13T07:30:15.811Z,17.4
2018-06-13T07:31:17.206Z,17.5
2018-06-13T07:32:18.612Z,17.4
2018-06-13T07:33:20.087Z,17.5
2018-06-13T07:34:21.500Z,17.4
2018-06-13T07:35:22.903Z,17.4
2018-06-13T07:36:24.303Z,17.4
2018-06-13T07:37:25.701Z,17.4
2018-06-13T07:38:27.100Z,17.4
2018-06-13T07:39:28.502Z,17.4
2018-06-13T07:40:29.900Z,17.5
2018-06-13T07:41:31.322Z,17.4
2018-06-13T07:42:32.695Z,17.3
2018-06-13T07:43:34.106Z,17.5
2018-06-13T07:44:35.492Z,17.5
2018-06-13T07:45:36.893Z,17.4
2018-06-13T07:46:38.291Z,17.4
2018-06-13T07:47:39.685Z,17.3
2018-06-13T07:48:41.086Z,17.3
2018-06-13T07:49:42.504Z,17.2
2018-06-13T07:50:43.882Z,17.3
2018-06-13T07:51:45.281Z,17.2
2018-06-13T07:52:46.680Z,17.2
2018-06-13T07:53:48.076Z,17.3
2018-06-13T07:54:49.474Z,17.3
2018-06-13T07:55:50.872Z,17.2
2018-06-13T07:56:52.269Z,17.2
2018-06-13T07:57:53.677Z,17.2
2018-06-13T07:58:55.074Z,17.3
2018-06-13T07:59:56.472Z,17.3
2018-06-13T08:00:57.873Z,17.3
2018-06-13T08:01:59.270Z,17.2
2018-06-13T08:03:00.676Z,17.2
2018-06-13T08:04:02.078Z,17.4
2018-06-13T08:05:03.474Z,17.4
2018-06-13T08:06:04.896Z,17.4
2018-06-13T08:07:06.296Z,17.4
2018-06-13T08:08:07.693Z,17.5
2018-06-13T08:09:09.127Z,17.4
2018-06-13T08:10:10.527Z,17.6
2018-06-13T08:11:11.930Z,17.5
2018-06-13T08:12:13.322Z,17.4
2018-06-13T08:13:14.718Z,17.4
2018-06-13T08:14:16.113Z,17.5
2018-06-13T08:15:17.521Z,17.4
2018-06-13T08:16:18.920Z,17.3
2018-06-13T08:17:20.320Z,17.3
2018-06-13T08:18:21.749Z,17.3
2018-06-13T08:19:23.203Z,17.4
2018-06-13T08:20:24.595Z,17.3
2018-06-13T08:21:25.990Z,17.4
2018-06-13T08:22:27.394Z,17.3
2018-06-13T08:23:28.798Z,17.3
2018-06-13T08:24:30.202Z,17.4
2018-06-13T08:25:31.602Z,17.4
2018-06-13T08:26:32.999Z,17.5
2018-06-13T08:27:34.397Z,17.5
2018-06-13T08:28:35.799Z,17.6
2018-06-13T08:29:37.207Z,17.6
2018-06-13T08:30:38.610Z,17.6
2018-06-13T08:31:40.041Z,17.7
2018-06-13T08:32:41.433Z,17.7
2018-06-13T08:33:42.883Z,17.8
2018-06-13T08:34:44.241Z,17.8
2018-06-13T08:35:45.636Z,17.9
2018-06-13T08:36:47.057Z,17.9
2018-06-13T08:37:48.456Z,17.9
2018-06-13T08:38:49.859Z,18.0
2018-06-13T08:39:51.301Z,18.1
2018-06-13T08:40:52.660Z,18.2
2018-06-13T08:41:54.060Z,18.0
2018-06-13T08:42:55.456Z,18.1
2018-06-13T08:43:56.856Z,18.2
2018-06-13T08:44:58.255Z,18.3
2018-06-13T08:45:59.654Z,18.4
2018-06-13T08:47:01.052Z,18.3
2018-06-13T08:48:02.450Z,18.4
2018-06-13T08:49:03.845Z,18.4
2018-06-13T08:50:05.251Z,18.4
2018-06-13T08:51:06.645Z,18.4
2018-06-13T08:52:08.057Z,18.5
2018-06-13T08:53:09.456Z,18.4
2018-06-13T08:54:10.873Z,18.4
2018-06-13T08:55:12.267Z,18.5
2018-06-13T08:56:13.665Z,18.4
2018-06-13T08:57:15.065Z,18.5
2018-06-13T08:58:16.473Z,18.5
2018-06-13T08:59:17.910Z,18.6
2018-06-13T09:00:19.322Z,18.6
2018-06-13T09:01:20.710Z,18.5
2018-06-13T09:02:22.846Z,18.5
2018-06-13T09:03:24.246Z,18.6
2018-06-13T09:04:25.676Z,18.3
2018-06-13T09:05:27.077Z,18.4
2018-06-13T09:06:28.473Z,18.3
2018-06-13T09:07:29.893Z,18.3
2018-06-13T09:08:31.294Z,18.2
2018-06-13T09:09:32.698Z,18.3
2018-06-13T09:10:34.097Z,18.2
2018-06-13T09:11:35.499Z,18.1
2018-06-13T09:12:36.896Z,18.2
2018-06-13T09:13:38.305Z,18.0
2018-06-13T09:14:39.706Z,18.0
2018-06-13T09:15:41.102Z,18.0
2018-06-13T09:16:42.500Z,17.9
2018-06-13T09:17:43.899Z,17.8
2018-06-13T09:18:45.291Z,17.8
2018-06-13T09:19:46.689Z,17.6
2018-06-13T09:20:48.085Z,17.5
2018-06-13T09:21:49.487Z,17.4
2018-06-13T09:22:50.882Z,17.4
2018-06-13T09:23:52.275Z,17.4
2018-06-13T09:24:53.674Z,17.5
2018-06-13T09:25:55.070Z,17.4
2018-06-13T09:26:56.473Z,17.4
2018-06-13T09:27:57.871Z,17.3
2018-06-13T09:28:59.268Z,17.3
2018-06-13T09:30:00.665Z,17.4
2018-06-13T09:31:02.061Z,17.4
2018-06-13T09:32:03.458Z,17.6
2018-06-13T09:33:04.855Z,17.5
2018-06-13T09:34:06.254Z,17.5
2018-06-13T09:35:07.655Z,17.6
2018-06-13T09:36:09.068Z,17.6
2018-06-13T09:37:10.465Z,17.6
2018-06-13T09:38:11.861Z,17.6
2018-06-13T09:39:13.255Z,17.6
2018-06-13T09:40:14.655Z,17.7
2018-06-13T09:41:16.055Z,17.9
2018-06-13T09:42:17.454Z,17.9
2018-06-13T09:43:18.856Z,17.9
2018-06-13T09:44:20.263Z,18.0
2018-06-13T09:45:21.655Z,18.1
2018-06-13T09:46:23.054Z,18.3
2018-06-13T09:47:24.452Z,18.2
2018-06-13T09:48:25.857Z,18.3
2018-06-13T09:49:27.260Z,18.4
2018-06-13T09:50:28.745Z,18.5
2018-06-13T09:51:30.141Z,18.6
2018-06-13T09:52:31.537Z,18.7
2018-06-13T09:53:32.940Z,18.7
2018-06-13T09:54:34.335Z,18.8
2018-06-13T09:55:35.736Z,19.1
2018-06-13T09:56:37.135Z,19.1
2018-06-13T09:57:38.536Z,19.0
2018-06-13T09:58:39.931Z,18.9
2018-06-13T09:59:41.333Z,19.0
2018-06-13T10:00:42.729Z,19.2
2018-06-13T10:01:44.207Z,19.2
2018-06-13T10:02:45.531Z,19.4
2018-06-13T10:03:46.929Z,19.3
2018-06-13T10:04:48.328Z,19.3
2018-06-13T10:05:49.728Z,19.2
2018-06-13T10:06:51.125Z,19.3
2018-06-13T10:07:52.528Z,19.3
2018-06-13T10:08:53.923Z,19.4
2018-06-13T10:09:55.324Z,19.4
2018-06-13T10:10:57.433Z,19.3
2018-06-13T10:11:58.833Z,19.4
2018-06-13T10:13:00.233Z,19.4
2018-06-13T10:14:01.628Z,19.2
2018-06-13T10:15:03.027Z,19.2
2018-06-13T10:16:04.424Z,19.2
2018-06-13T10:17:05.824Z,19.1
2018-06-13T10:18:07.224Z,19.1
2018-06-13T10:19:08.627Z,19.0
2018-06-13T10:20:10.026Z,19.0
2018-06-13T10:21:11.424Z,19.1
2018-06-13T10:22:12.841Z,18.9
2018-06-13T10:23:14.225Z,18.9
2018-06-13T10:24:15.625Z,19.1
2018-06-13T10:25:17.022Z,19.1
2018-06-13T10:26:18.420Z,19.1
2018-06-13T10:27:19.818Z,19.1
2018-06-13T10:28:21.217Z,19.2
2018-06-13T10:29:22.623Z,19.3
2018-06-13T10:30:24.025Z,19.3
2018-06-13T10:31:25.425Z,19.4
2018-06-13T10:32:26.821Z,19.4
2018-06-13T10:33:28.218Z,19.5
2018-06-13T10:34:29.615Z,19.5
2018-06-13T10:35:31.046Z,19.7
2018-06-13T10:36:32.443Z,19.8
2018-06-13T10:37:33.843Z,19.8
2018-06-13T10:38:35.291Z,19.8
2018-06-13T10:39:36.695Z,19.7
2018-06-13T10:40:38.097Z,19.7
2018-06-13T10:41:39.492Z,19.6
2018-06-13T10:42:40.892Z,19.4
2018-06-13T10:43:42.291Z,19.4
2018-06-13T10:44:43.700Z,19.3
2018-06-13T10:45:45.100Z,19.2
2018-06-13T10:46:46.501Z,19.1
2018-06-13T10:47:47.897Z,18.9
2018-06-13T10:48:49.298Z,19.0
2018-06-13T10:49:50.697Z,18.9
2018-06-13T10:50:52.141Z,18.8
2018-06-13T10:51:53.737Z,18.7
2018-06-13T10:52:55.202Z,18.6
2018-06-13T10:53:56.781Z,18.5
2018-06-13T10:54:58.182Z,18.4
2018-06-13T10:55:59.584Z,18.2
2018-06-13T10:57:00.982Z,18.3
2018-06-13T10:58:02.377Z,18.3
2018-06-13T10:59:03.778Z,18.3
2018-06-13T11:00:05.174Z,18.4
2018-06-13T11:01:06.577Z,18.2
2018-06-13T11:02:07.983Z,18.2
2018-06-13T11:03:09.375Z,18.3
2018-06-13T11:04:10.772Z,18.3
2018-06-13T11:05:12.172Z,18.3
2018-06-13T11:06:13.618Z,18.4
2018-06-13T11:07:15.016Z,18.3
2018-06-13T11:08:16.421Z,18.4
2018-06-13T11:09:17.816Z,18.5
2018-06-13T11:10:19.215Z,18.5
2018-06-13T11:11:20.618Z,18.6
2018-06-13T11:12:22.016Z,18.8
2018-06-13T11:13:23.421Z,18.9
2018-06-13T11:14:24.815Z,18.9
2018-06-13T11:15:26.217Z,19.0
2018-06-13T11:16:27.615Z,19.0
2018-06-13T11:17:29.013Z,19.1
2018-06-13T11:18:30.437Z,19.2
2018-06-13T11:19:31.836Z,19.2
2018-06-13T11:20:33.355Z,19.4
2018-06-13T11:21:34.801Z,19.5
2018-06-13T11:22:36.207Z,19.6
2018-06-13T11:23:37.608Z,19.8
2018-06-13T11:24:39.018Z,20.0
2018-06-13T11:25:40.414Z,20.1
2018-06-13T11:26:41.815Z,20.1
2018-06-13T11:27:43.212Z,20.3
2018-06-13T11:28:44.612Z,20.4
2018-06-13T11:29:46.010Z,20.6
2018-06-13T11:30:47.410Z,20.6
2018-06-13T11:31:48.808Z,20.7
2018-06-13T11:32:50.204Z,20.8
2018-06-13T11:33:51.607Z,20.9
2018-06-13T11:34:53.005Z,20.9
2018-06-13T11:35:54.403Z,20.9
2018-06-13T11:36:55.802Z,21.0
2018-06-13T11:37:57.201Z,21.0
2018-06-13T11:38:58.621Z,21.0
2018-06-13T11:40:00.025Z,20.9
2018-06-13T11:41:01.418Z,20.8
2018-06-13T11:42:02.817Z,20.7
2018-06-13T11:43:04.232Z,20.7
2018-06-13T11:44:05.631Z,20.7
2018-06-13T11:45:07.031Z,20.7
2018-06-13T11:46:08.429Z,20.7
2018-06-13T11:47:09.825Z,20.7
2018-06-13T11:48:11.236Z,20.8
2018-06-13T11:49:12.626Z,20.9
2018-06-13T11:50:14.028Z,20.9
2018-06-13T11:51:15.425Z,20.9
2018-06-13T11:52:16.825Z,20.8
2018-06-13T11:53:18.225Z,20.7
2018-06-13T11:54:19.623Z,20.8
2018-06-13T11:55:21.020Z,20.8
2018-06-13T11:56:22.420Z,20.9
2018-06-13T11:57:23.839Z,20.8
2018-06-13T11:58:25.257Z,20.9
2018-06-13T11:59:26.657Z,20.7
2018-06-13T12:00:28.112Z,20.8
2018-06-13T12:01:29.490Z,20.6
2018-06-13T12:02:30.887Z,20.7
2018-06-13T12:03:32.289Z,20.5
2018-06-13T12:04:33.700Z,20.5
2018-06-13T12:05:35.111Z,20.6
2018-06-13T12:06:36.516Z,20.6
2018-06-13T12:07:37.927Z,20.5
2018-06-13T12:08:39.345Z,20.4
2018-06-13T12:09:40.729Z,20.6
2018-06-13T12:10:42.128Z,20.6
2018-06-13T12:11:43.527Z,20.7
2018-06-13T12:12:44.923Z,20.7
2018-06-13T12:13:46.324Z,20.8
2018-06-13T12:14:47.721Z,20.8
2018-06-13T12:15:49.124Z,20.7
2018-06-13T12:16:50.534Z,20.7
2018-06-13T12:17:51.919Z,20.7
2018-06-13T12:18:53.320Z,20.7
2018-06-13T12:19:54.719Z,20.6
2018-06-13T12:20:56.126Z,20.6
2018-06-13T12:21:57.523Z,20.5
2018-06-13T12:22:58.930Z,20.5
2018-06-13T12:24:00.327Z,20.3
2018-06-13T12:25:01.724Z,20.4
2018-06-13T12:26:03.125Z,20.3
2018-06-13T12:27:04.529Z,20.2
2018-06-13T12:28:05.931Z,20.2
2018-06-13T12:29:07.332Z,20.1
2018-06-13T12:30:08.731Z,20.0
2018-06-13T12:31:10.127Z,19.9
2018-06-13T12:32:11.529Z,19.9
2018-06-13T12:33:12.930Z,19.9
2018-06-13T12:34:14.375Z,20.0
2018-06-13T12:35:15.732Z,20.0
2018-06-13T12:36:17.129Z,20.0
2018-06-13T12:37:18.527Z,20.0
2018-06-13T12:38:19.926Z,19.9
2018-06-13T12:39:21.333Z,19.8
2018-06-13T12:40:22.721Z,19.9
2018-06-13T12:41:24.120Z,19.7
2018-06-13T12:42:25.531Z,19.6
2018-06-13T12:43:26.926Z,19.6
2018-06-13T12:44:28.320Z,19.6
2018-06-13T12:45:29.735Z,19.6
2018-06-13T12:46:31.117Z,19.6
2018-06-13T12:47:32.518Z,19.5
2018-06-13T12:48:33.913Z,19.5
2018-06-13T12:49:35.316Z,19.6
2018-06-13T12:50:36.713Z,19.6
2018-06-13T12:51:38.115Z,19.6
2018-06-13T12:52:39.530Z,19.7
2018-06-13T12:53:41.055Z,19.8
2018-06-13T12:54:42.446Z,19.9
2018-06-13T12:55:43.849Z,19.9
2018-06-13T12:56:45.254Z,19.9
2018-06-13T12:57:46.654Z,19.9
2018-06-13T12:58:48.140Z,20.0
2018-06-13T12:59:49.450Z,20.1
2018-06-13T13:00:50.865Z,20.0
2018-06-13T13:01:52.250Z,20.1
2018-06-13T13:02:53.652Z,20.2
2018-06-13T13:03:55.058Z,20.2
2018-06-13T13:04:56.462Z,20.5
2018-06-13T13:05:57.854Z,20.6
2018-06-13T13:06:59.294Z,20.6
2018-06-13T13:08:00.654Z,20.6
2018-06-13T13:09:02.053Z,20.7
2018-06-13T13:10:03.463Z,20.7
2018-06-13T13:11:04.913Z,20.7
2018-06-13T13:12:06.277Z,20.7
2018-06-13T13:13:07.673Z,20.6
2018-06-13T13:14:09.074Z,20.7
2018-06-13T13:15:10.472Z,20.7
2018-06-13T13:16:11.873Z,20.7
2018-06-13T13:17:13.276Z,20.7
2018-06-13T13:18:14.679Z,20.7
2018-06-13T13:19:16.075Z,20.8
2018-06-13T13:20:17.498Z,20.8
2018-06-13T13:21:18.872Z,20.8
2018-06-13T13:22:20.272Z,20.6
2018-06-13T13:23:21.674Z,20.6
2018-06-13T13:24:23.068Z,20.7
2018-06-13T13:25:24.470Z,20.9
2018-06-13T13:26:25.870Z,20.9
2018-06-13T13:27:27.270Z,21.0
2018-06-13T13:28:28.666Z,21.0
2018-06-13T13:29:30.067Z,21.1
2018-06-13T13:30:31.472Z,21.2
2018-06-13T13:31:32.873Z,21.2
2018-06-13T13:32:34.277Z,21.4
2018-06-13T13:33:35.675Z,21.5
2018-06-13T13:34:37.072Z,21.6
2018-06-13T13:35:38.531Z,21.8
2018-06-13T13:36:39.872Z,22.2